createdAt,value
2023-09-28T00:01:03.715Z,100672.75
2023-09-28T00:03:30.679Z,100668.72
2023-09-28T00:05:57.484Z,100668.56
2023-09-28T00:08:24.128Z,100664.41
2023-09-28T00:10:50.775Z,100665.03
2023-09-28T00:13:17.459Z,100660.50
2023-09-28T00:15:44.037Z,100661.88
2023-09-28T00:18:10.782Z,100663.38
2023-09-28T00:20:37.468Z,100659.19
2023-09-28T00:23:05.287Z,100663.72
2023-09-28T00:25:32.270Z,100660.72
2023-09-28T00:27:58.909Z,100659.22
2023-09-28T00:30:27.625Z,100660.34
2023-09-28T00:32:55.186Z,100660.72
2023-09-28T00:35:22.042Z,100654.91
2023-09-28T00:37:49.834Z,100653.50
2023-09-28T00:40:18.631Z,100653.13
2023-09-28T00:42:45.837Z,100652.25
2023-09-28T00:45:12.589Z,100643.06
2023-09-28T00:47:39.932Z,100633.13
2023-09-28T00:50:16.536Z,100645.69
2023-09-28T00:52:44.206Z,100655.97
2023-09-28T00:55:12.778Z,100650.84
2023-09-28T00:57:39.920Z,100659.63
2023-09-28T01:00:25.544Z,100653.88
2023-09-28T01:02:53.538Z,100657.34
2023-09-28T01:05:20.905Z,100652.56
2023-09-28T01:07:50.616Z,100652.94
2023-09-28T01:10:24.366Z,100652.97
2023-09-28T01:12:51.844Z,100651.22
2023-09-28T01:15:18.642Z,100651.13
2023-09-28T01:17:45.385Z,100650.53
2023-09-28T01:20:31.674Z,100652.34
2023-09-28T01:22:58.681Z,100655.63
2023-09-28T01:25:25.615Z,100647.19
2023-09-28T01:27:52.257Z,100651.03
2023-09-28T01:30:18.900Z,100650.47
2023-09-28T01:32:45.650Z,100663.03
2023-09-28T01:35:14.987Z,100661.38
2023-09-28T01:38:01.493Z,100668.03
2023-09-28T01:40:28.180Z,100654.25
2023-09-28T01:42:54.845Z,100651.34
2023-09-28T01:45:22.769Z,100659.19
2023-09-28T01:47:49.596Z,100652.34
2023-09-28T01:50:17.788Z,100650.22
2023-09-28T01:52:44.355Z,100646.28
2023-09-28T01:55:12.033Z,100647.91
2023-09-28T01:57:38.632Z,100638.81
2023-09-28T02:00:15.199Z,100636.91
2023-09-28T02:02:43.863Z,100640.53
2023-09-28T02:05:12.984Z,100645.88
2023-09-28T02:07:39.773Z,100640.16
2023-09-28T02:10:07.471Z,100643.31
2023-09-28T02:12:34.945Z,100632.97
2023-09-28T02:15:05.811Z,100637.22
2023-09-28T02:17:32.520Z,100636.97
2023-09-28T02:19:59.138Z,100627.53
2023-09-28T02:22:25.776Z,100638.31
2023-09-28T02:24:52.479Z,100634.19
2023-09-28T02:27:19.155Z,100630.09
2023-09-28T02:29:46.214Z,100624.28
2023-09-28T02:32:15.651Z,100618.63
2023-09-28T02:34:43.736Z,100618.91
2023-09-28T02:37:10.379Z,100625.50
2023-09-28T02:39:39.732Z,100624.47
2023-09-28T02:42:08.855Z,100619.47
2023-09-28T02:44:35.999Z,100623.78
2023-09-28T02:47:07.103Z,100623.22
2023-09-28T02:49:33.820Z,100620.53
2023-09-28T02:52:00.945Z,100616.53
2023-09-28T02:54:28.034Z,100621.88
2023-09-28T02:56:55.056Z,100612.41
2023-09-28T02:59:24.546Z,100616.28
2023-09-28T03:01:53.288Z,100616.09
2023-09-28T03:04:20.013Z,100613.94
2023-09-28T03:06:47.776Z,100631.41
2023-09-28T03:09:14.358Z,100626.47
2023-09-28T03:11:41.082Z,100638.41
2023-09-28T03:14:07.984Z,100651.00
2023-09-28T03:16:34.836Z,100645.84
2023-09-28T03:19:03.611Z,100646.53
2023-09-28T03:21:30.809Z,100654.66
2023-09-28T03:24:00.558Z,100652.22
2023-09-28T03:26:29.187Z,100663.28
2023-09-28T03:28:57.177Z,100657.53
2023-09-28T03:31:28.509Z,100648.34
2023-09-28T03:33:55.900Z,100645.28
2023-09-28T03:36:22.937Z,100648.34
2023-09-28T03:38:49.535Z,100640.28
2023-09-28T03:41:16.213Z,100640.94
2023-09-28T03:43:45.632Z,100636.13
2023-09-28T03:46:13.479Z,100648.31
2023-09-28T03:48:40.138Z,100653.13
2023-09-28T03:51:06.747Z,100649.09
2023-09-28T03:53:39.411Z,100647.97
2023-09-28T03:56:06.173Z,100655.84
2023-09-28T03:58:33.174Z,100647.31
2023-09-28T04:00:59.864Z,100638.06
2023-09-28T04:03:26.459Z,100642.06
2023-09-28T04:05:53.218Z,100643.13
2023-09-28T04:08:19.799Z,100651.34
2023-09-28T04:10:46.517Z,100643.41
2023-09-28T04:13:13.134Z,100642.56
2023-09-28T04:15:40.436Z,100640.25
2023-09-28T04:18:08.015Z,100635.09
2023-09-28T04:20:34.912Z,100630.56
2023-09-28T04:23:08.299Z,100617.81
2023-09-28T04:25:35.437Z,100623.78
2023-09-28T04:28:02.273Z,100629.88
2023-09-28T04:30:28.911Z,100627.22
2023-09-28T04:32:55.926Z,100627.81
2023-09-28T04:35:22.810Z,100632.19
2023-09-28T04:37:49.528Z,100620.28
2023-09-28T04:40:16.381Z,100615.56
2023-09-28T04:42:43.250Z,100617.63
2023-09-28T04:45:11.396Z,100617.41
2023-09-28T04:47:38.119Z,100613.72
2023-09-28T04:50:05.817Z,100611.22
2023-09-28T04:52:32.438Z,100612.84
2023-09-28T04:55:00.275Z,100616.78
2023-09-28T04:57:27.279Z,100613.16
2023-09-28T04:59:55.338Z,100606.69
2023-09-28T05:02:22.297Z,100615.72
2023-09-28T05:04:48.966Z,100632.84
2023-09-28T05:07:15.534Z,100625.91
2023-09-28T05:09:43.403Z,100627.63
2023-09-28T05:12:10.627Z,100630.28
2023-09-28T05:14:37.379Z,100640.75
2023-09-28T05:17:04.069Z,100639.81
2023-09-28T05:19:31.577Z,100633.78
2023-09-28T05:21:58.325Z,100636.47
2023-09-28T05:24:24.986Z,100640.56
2023-09-28T05:26:51.531Z,100647.31
2023-09-28T05:29:18.300Z,100647.00
2023-09-28T05:31:46.149Z,100639.91
2023-09-28T05:34:12.917Z,100651.75
2023-09-28T05:36:39.459Z,100653.31
2023-09-28T05:39:06.170Z,100664.97
2023-09-28T05:41:32.776Z,100673.31
2023-09-28T05:43:59.546Z,100667.22
2023-09-28T05:46:26.282Z,100678.28
2023-09-28T05:48:52.950Z,100677.38
2023-09-28T05:51:19.546Z,100681.69
2023-09-28T05:53:47.873Z,100679.59
2023-09-28T05:56:15.828Z,100681.31
2023-09-28T05:58:42.460Z,100677.13
2023-09-28T06:01:14.380Z,100679.47
2023-09-28T06:03:41.084Z,100678.81
2023-09-28T06:06:17.998Z,100681.09
2023-09-28T06:08:45.380Z,100684.00
2023-09-28T06:11:13.560Z,100683.22
2023-09-28T06:13:56.208Z,100680.38
2023-09-28T06:16:29.398Z,100685.06
2023-09-28T06:18:56.377Z,100684.34
2023-09-28T06:21:24.168Z,100686.78
2023-09-28T06:23:50.963Z,100696.25
2023-09-28T06:26:30.293Z,100702.31
2023-09-28T06:29:02.068Z,100703.78
2023-09-28T06:31:29.170Z,100703.28
2023-09-28T06:33:55.893Z,100698.19
2023-09-28T06:36:38.603Z,100709.31
2023-09-28T06:39:10.111Z,100707.78
2023-09-28T06:41:37.704Z,100714.91
2023-09-28T06:44:04.467Z,100714.34
2023-09-28T06:46:31.133Z,100726.19
2023-09-28T06:48:58.174Z,100727.78
2023-09-28T06:51:27.282Z,100727.22
2023-09-28T06:53:54.155Z,100722.69
2023-09-28T06:56:21.728Z,100728.34
2023-09-28T06:58:48.418Z,100717.66
2023-09-28T07:01:15.083Z,100724.63
2023-09-28T07:03:43.132Z,100732.22
2023-09-28T07:06:10.344Z,100738.56
2023-09-28T07:08:37.027Z,100739.50
2023-09-28T07:11:03.770Z,100745.88
2023-09-28T07:13:30.406Z,100748.81
2023-09-28T07:15:59.975Z,100748.38
2023-09-28T07:18:27.459Z,100756.69
2023-09-28T07:20:54.573Z,100757.13
2023-09-28T07:23:21.306Z,100764.09
2023-09-28T07:25:50.073Z,100759.63
2023-09-28T07:28:16.788Z,100770.75
2023-09-28T07:30:43.377Z,100768.06
2023-09-28T07:33:14.371Z,100765.53
2023-09-28T07:35:41.425Z,100779.22
2023-09-28T07:38:08.102Z,100781.22
2023-09-28T07:40:46.845Z,100779.22
2023-09-28T07:43:16.099Z,100781.00
2023-09-28T07:45:43.104Z,100782.47
2023-09-28T07:48:10.192Z,100791.03
2023-09-28T07:50:36.882Z,100785.19
2023-09-28T07:53:03.612Z,100785.44
2023-09-28T07:55:30.236Z,100786.66
2023-09-28T07:58:05.207Z,100794.72
2023-09-28T08:00:38.514Z,100787.63
2023-09-28T08:03:06.233Z,100789.34
2023-09-28T08:05:33.080Z,100795.44
2023-09-28T08:08:11.574Z,100791.03
2023-09-28T08:10:42.086Z,100790.81
2023-09-28T08:13:09.101Z,100789.94
2023-09-28T08:15:37.460Z,100787.88
2023-09-28T08:18:05.018Z,100796.66
2023-09-28T08:20:35.483Z,100796.44
2023-09-28T08:23:04.780Z,100800.19
2023-09-28T08:25:31.804Z,100800.31
2023-09-28T08:27:58.440Z,100797.63
2023-09-28T08:30:25.064Z,100796.69
2023-09-28T08:32:51.968Z,100790.81
2023-09-28T08:35:18.626Z,100792.88
2023-09-28T08:37:45.257Z,100794.31
2023-09-28T08:40:12.005Z,100790.81
2023-09-28T08:42:40.269Z,100798.09
2023-09-28T08:45:07.250Z,100798.94
2023-09-28T08:47:37.146Z,100799.81
2023-09-28T08:50:05.372Z,100803.75
2023-09-28T08:52:32.623Z,100814.22
2023-09-28T08:55:00.101Z,100807.53
2023-09-28T08:57:27.705Z,100813.53
2023-09-28T08:59:54.989Z,100826.22
2023-09-28T09:02:22.555Z,100834.50
2023-09-28T09:04:49.838Z,100836.97
2023-09-28T09:07:16.846Z,100837.13
2023-09-28T09:12:13.948Z,100851.19
2023-09-28T09:14:40.803Z,100845.34
2023-09-28T09:17:11.864Z,100841.63
2023-09-28T09:19:39.841Z,100841.75
2023-09-28T09:22:09.233Z,100836.38
2023-09-28T09:24:53.222Z,100836.59
2023-09-28T09:27:25.574Z,100838.97
2023-09-28T09:29:52.161Z,100839.13
2023-09-28T09:32:22.655Z,100833.72
2023-09-28T09:34:52.035Z,100840.84
2023-09-28T09:37:18.632Z,100837.50
2023-09-28T09:39:45.972Z,100844.94
2023-09-28T09:42:13.030Z,100844.59
2023-09-28T09:44:39.753Z,100848.47
2023-09-28T09:47:06.505Z,100842.78
2023-09-28T09:49:34.327Z,100842.09
2023-09-28T09:52:03.667Z,100849.13
2023-09-28T09:54:32.578Z,100851.91
2023-09-28T09:57:00.694Z,100845.84
2023-09-28T09:59:29.564Z,100851.75
2023-09-28T10:01:56.917Z,100860.44
2023-09-28T10:04:25.069Z,100857.66
2023-09-28T10:06:52.662Z,100869.47
2023-09-28T10:09:20.265Z,100865.91
2023-09-28T10:11:49.250Z,100869.72
2023-09-28T10:14:17.296Z,100866.19
2023-09-28T10:16:44.554Z,100858.53
2023-09-28T10:19:16.312Z,100861.09
2023-09-28T10:21:42.996Z,100862.63
2023-09-28T10:24:13.599Z,100856.25
2023-09-28T10:26:53.056Z,100854.41
2023-09-28T10:29:25.248Z,100839.47
2023-09-28T10:31:58.389Z,100839.78
2023-09-28T10:34:27.672Z,100838.16
2023-09-28T10:37:08.579Z,100831.97
2023-09-28T10:39:35.945Z,100829.91
2023-09-28T10:42:21.367Z,100836.66
2023-09-28T10:44:55.760Z,100829.00
2023-09-28T10:47:22.841Z,100840.78
2023-09-28T10:49:51.253Z,100836.47
2023-09-28T10:52:17.932Z,100850.69
2023-09-28T10:54:45.698Z,100850.47
2023-09-28T10:57:12.443Z,100845.75
2023-09-28T10:59:41.831Z,100835.81
2023-09-28T11:02:09.659Z,100826.38
2023-09-28T11:04:50.809Z,100835.84
2023-09-28T11:07:19.155Z,100839.88
2023-09-28T11:09:46.131Z,100844.03
2023-09-28T11:12:14.614Z,100849.72
2023-09-28T11:14:41.988Z,100842.25
2023-09-28T11:17:08.994Z,100846.84
2023-09-28T11:19:36.149Z,100847.75
2023-09-28T11:22:03.141Z,100838.66
2023-09-28T11:24:29.688Z,100842.44
2023-09-28T11:26:57.702Z,100848.88
2023-09-28T11:29:26.205Z,100841.59
2023-09-28T11:31:54.554Z,100832.84
2023-09-28T11:34:36.656Z,100838.06
2023-09-28T11:37:03.300Z,100835.84
2023-09-28T11:39:29.910Z,100827.69
2023-09-28T11:42:00.834Z,100823.41
2023-09-28T11:44:33.062Z,100821.28
2023-09-28T11:46:59.896Z,100818.28
2023-09-28T11:49:27.857Z,100812.84
2023-09-28T11:51:55.089Z,100808.47
2023-09-28T11:54:22.522Z,100800.47
2023-09-28T11:56:49.636Z,100806.94
2023-09-28T11:59:17.861Z,100799.09
2023-09-28T12:01:53.246Z,100790.13
2023-09-28T12:04:20.219Z,100789.13
2023-09-28T12:06:47.242Z,100782.28
2023-09-28T12:09:18.860Z,100781.41
2023-09-28T12:11:46.653Z,100785.34
2023-09-28T12:14:13.976Z,100798.53
2023-09-28T12:16:46.662Z,100797.44
2023-09-28T12:19:14.417Z,100797.25
2023-09-28T12:21:41.416Z,100797.38
2023-09-28T12:24:08.258Z,100803.59
2023-09-28T12:26:35.491Z,100803.94
2023-09-28T12:29:02.282Z,100808.03
2023-09-28T12:31:28.910Z,100801.63
2023-09-28T12:33:56.398Z,100793.31
2023-09-28T12:36:23.170Z,100806.03
2023-09-28T12:38:52.780Z,100811.13
2023-09-28T12:41:19.839Z,100807.00
2023-09-28T12:43:47.252Z,100810.31
2023-09-28T12:46:14.018Z,100810.47
2023-09-28T12:48:42.380Z,100814.19
2023-09-28T12:51:09.008Z,100809.03
2023-09-28T12:53:37.459Z,100805.47
2023-09-28T12:56:05.372Z,100804.25
2023-09-28T12:58:32.026Z,100804.84
2023-09-28T13:00:58.721Z,100807.56
2023-09-28T13:03:25.432Z,100806.47
2023-09-28T13:05:52.333Z,100801.59
2023-09-28T13:08:18.918Z,100801.41
2023-09-28T13:10:45.767Z,100795.72
2023-09-28T13:13:13.132Z,100798.78
2023-09-28T13:15:39.995Z,100797.28
2023-09-28T13:18:09.562Z,100786.38
2023-09-28T13:20:40.631Z,100794.94
2023-09-28T13:23:07.902Z,100793.22
2023-09-28T13:25:35.120Z,100792.28
2023-09-28T13:28:02.095Z,100790.63
2023-09-28T13:30:30.875Z,100786.09
2023-09-28T13:33:00.704Z,100791.97
2023-09-28T13:35:27.855Z,100787.53
2023-09-28T13:37:54.500Z,100791.28
2023-09-28T13:40:29.584Z,100787.97
2023-09-28T13:42:58.136Z,100786.31
2023-09-28T13:45:24.987Z,100796.31
2023-09-28T13:47:51.805Z,100802.22
2023-09-28T13:50:18.633Z,100796.88
2023-09-28T13:52:46.796Z,100798.59
2023-09-28T13:55:17.414Z,100810.09
2023-09-28T13:57:45.010Z,100806.97
2023-09-28T14:00:29.393Z,100792.28
2023-09-28T14:02:56.503Z,100791.13
2023-09-28T14:05:23.357Z,100787.03
2023-09-28T14:07:50.977Z,100795.25
2023-09-28T14:10:18.297Z,100784.03
2023-09-28T14:12:46.632Z,100780.06
2023-09-28T14:15:13.293Z,100776.53
2023-09-28T14:17:40.272Z,100778.25
2023-09-28T14:20:08.207Z,100780.81
2023-09-28T14:22:34.987Z,100783.06
2023-09-28T14:25:04.416Z,100793.91
2023-09-28T14:27:31.739Z,100789.59
2023-09-28T14:30:01.908Z,100788.53
2023-09-28T14:32:29.561Z,100793.66
2023-09-28T14:34:58.734Z,100792.34
2023-09-28T14:37:25.560Z,100792.00
2023-09-28T14:39:53.511Z,100779.53
2023-09-28T14:42:20.588Z,100786.06
2023-09-28T14:44:47.308Z,100772.56
2023-09-28T14:47:14.074Z,100787.91
2023-09-28T14:49:40.802Z,100783.13
2023-09-28T14:52:07.938Z,100786.47
2023-09-28T14:54:34.515Z,100787.66
2023-09-28T14:57:01.132Z,100787.19
2023-09-28T14:59:27.754Z,100790.53
2023-09-28T15:01:54.424Z,100782.13
2023-09-28T15:04:21.424Z,100790.97
2023-09-28T15:06:48.085Z,100787.78
2023-09-28T15:09:14.721Z,100781.41
2023-09-28T15:11:41.341Z,100780.38
2023-09-28T15:14:08.002Z,100777.03
2023-09-28T15:16:34.728Z,100785.41
2023-09-28T15:19:01.305Z,100781.63
2023-09-28T15:21:27.928Z,100784.53
2023-09-28T15:23:54.640Z,100790.84
2023-09-28T15:26:21.546Z,100785.41
2023-09-28T15:28:48.812Z,100787.53
2023-09-28T15:31:15.450Z,100785.75
2023-09-28T15:33:42.030Z,100787.03
2023-09-28T15:36:08.750Z,100781.41
2023-09-28T15:38:35.324Z,100781.16
2023-09-28T15:41:04.808Z,100779.66
2023-09-28T15:43:35.914Z,100782.69
2023-09-28T15:46:02.557Z,100785.03
2023-09-28T15:48:29.387Z,100777.91
2023-09-28T15:50:56.034Z,100781.09
2023-09-28T15:53:22.636Z,100779.44
2023-09-28T15:55:49.375Z,100784.47
2023-09-28T15:58:16.192Z,100783.63
2023-09-28T16:00:43.206Z,100788.84
2023-09-28T16:03:09.936Z,100784.25
2023-09-28T16:05:37.196Z,100795.59
2023-09-28T16:08:05.676Z,100788.13
2023-09-28T16:10:32.516Z,100789.03
2023-09-28T16:12:59.153Z,100797.19
2023-09-28T16:15:25.898Z,100799.19
2023-09-28T16:17:52.657Z,100804.47
2023-09-28T16:20:19.514Z,100800.53
2023-09-28T16:22:46.269Z,100805.56
2023-09-28T16:25:12.848Z,100808.53
2023-09-28T16:27:39.724Z,100811.66
2023-09-28T16:30:06.724Z,100813.91
2023-09-28T16:32:33.380Z,100813.91
2023-09-28T16:35:00.106Z,100823.41
2023-09-28T16:37:26.687Z,100825.53
2023-09-28T16:39:53.316Z,100833.38
2023-09-28T16:42:19.910Z,100827.63
2023-09-28T16:44:46.590Z,100829.41
2023-09-28T16:47:13.400Z,100823.56
2023-09-28T16:49:40.036Z,100822.69
2023-09-28T16:52:07.122Z,100813.88
2023-09-28T16:54:33.740Z,100822.94
2023-09-28T16:57:00.363Z,100812.38
2023-09-28T16:59:27.033Z,100819.19
2023-09-28T17:01:53.767Z,100819.22
2023-09-28T17:04:20.950Z,100823.28
2023-09-28T17:06:47.664Z,100819.41
2023-09-28T17:09:14.558Z,100825.03
2023-09-28T17:11:41.471Z,100820.81
2023-09-28T17:14:08.714Z,100816.38
2023-09-28T17:16:35.394Z,100806.84
2023-09-28T17:19:02.183Z,100817.75
2023-09-28T17:21:28.765Z,100822.50
2023-09-28T17:23:55.469Z,100818.59
2023-09-28T17:26:22.224Z,100815.63
2023-09-28T17:28:49.595Z,100815.72
2023-09-28T17:31:16.520Z,100820.63
2023-09-28T17:33:43.256Z,100822.22
2023-09-28T17:36:10.359Z,100818.34
2023-09-28T17:38:37.835Z,100811.81
2023-09-28T17:41:05.084Z,100812.78
2023-09-28T17:43:31.723Z,100809.63
2023-09-28T17:45:58.402Z,100820.59
2023-09-28T17:48:25.159Z,100815.22
2023-09-28T17:50:51.839Z,100818.13
2023-09-28T17:53:19.341Z,100816.66
2023-09-28T17:55:48.107Z,100814.75
2023-09-28T17:58:18.392Z,100825.19
2023-09-28T18:00:46.092Z,100818.59
2023-09-28T18:03:12.845Z,100821.53
2023-09-28T18:05:39.586Z,100827.81
2023-09-28T18:08:07.457Z,100835.41
2023-09-28T18:10:35.200Z,100832.91
2023-09-28T18:13:04.497Z,100829.34
2023-09-28T18:15:33.131Z,100827.69
2023-09-28T18:17:59.904Z,100833.81
2023-09-28T18:20:26.745Z,100835.53
2023-09-28T18:22:53.904Z,100823.44
2023-09-28T18:25:20.658Z,100835.75
2023-09-28T18:27:47.386Z,100841.78
2023-09-28T18:30:14.173Z,100836.66
2023-09-28T18:32:44.094Z,100835.28
2023-09-28T18:35:11.271Z,100833.00
2023-09-28T18:37:38.313Z,100837.59
2023-09-28T18:40:06.783Z,100837.53
2023-09-28T18:42:33.439Z,100850.25
2023-09-28T18:45:00.745Z,100843.88
2023-09-28T18:47:29.570Z,100842.41
2023-09-28T18:49:56.925Z,100842.66
2023-09-28T18:52:23.533Z,100846.41
2023-09-28T18:54:50.188Z,100841.56
2023-09-28T18:57:16.750Z,100839.81
2023-09-28T18:59:43.441Z,100847.84
2023-09-28T19:02:10.075Z,100845.06
2023-09-28T19:04:36.703Z,100844.63
2023-09-28T19:07:03.457Z,100846.34
2023-09-28T19:09:30.133Z,100850.13
2023-09-28T19:11:59.887Z,100854.50
2023-09-28T19:14:28.340Z,100846.53
2023-09-28T19:16:55.925Z,100840.94
2023-09-28T19:19:25.610Z,100836.69
2023-09-28T19:21:52.300Z,100828.16
2023-09-28T19:24:18.942Z,100829.63
2023-09-28T19:26:45.637Z,100838.75
2023-09-28T19:29:12.384Z,100841.97
2023-09-28T19:31:39.095Z,100835.22
2023-09-28T19:34:08.297Z,100836.91
2023-09-28T19:36:36.288Z,100836.72
2023-09-28T19:39:04.444Z,100838.00
2023-09-28T19:41:33.951Z,100832.44
2023-09-28T19:44:01.027Z,100836.06
2023-09-28T19:46:27.626Z,100841.44
2023-09-28T19:48:54.347Z,100840.78
2023-09-28T19:51:22.973Z,100835.63
2023-09-28T19:53:49.778Z,100830.09
2023-09-28T19:56:26.539Z,100822.47
2023-09-28T19:58:53.584Z,100815.44
2023-09-28T20:01:20.822Z,100818.22
2023-09-28T20:03:48.011Z,100816.94
2023-09-28T20:06:14.754Z,100815.88
2023-09-28T20:08:41.491Z,100817.41
2023-09-28T20:11:08.444Z,100814.88
2023-09-28T20:13:35.190Z,100810.06
2023-09-28T20:16:02.189Z,100808.22
2023-09-28T20:18:29.929Z,100819.16
2023-09-28T20:20:59.515Z,100826.78
2023-09-28T20:23:26.313Z,100831.09
2023-09-28T20:25:52.928Z,100828.81
2023-09-28T20:28:19.564Z,100832.66
2023-09-28T20:30:46.293Z,100835.44
2023-09-28T20:33:13.269Z,100840.63
2023-09-28T20:35:46.625Z,100831.72
2023-09-28T20:38:13.411Z,100835.59
2023-09-28T20:40:40.580Z,100838.63
2023-09-28T20:43:07.270Z,100836.69
2023-09-28T20:45:42.851Z,100832.78
2023-09-28T20:48:10.367Z,100817.78
2023-09-28T20:50:37.280Z,100826.13
2023-09-28T20:53:04.042Z,100829.38
2023-09-28T20:55:30.993Z,100837.50
2023-09-28T20:57:57.672Z,100837.03
2023-09-28T21:00:25.117Z,100840.56
2023-09-28T21:02:51.974Z,100836.72
2023-09-28T21:05:18.744Z,100832.66
2023-09-28T21:07:45.951Z,100838.34
2023-09-28T21:10:13.188Z,100833.66
2023-09-28T21:12:40.083Z,100839.50
2023-09-28T21:15:09.407Z,100832.84
2023-09-28T21:17:37.020Z,100829.63
2023-09-28T21:20:04.425Z,100823.03
2023-09-28T21:22:31.121Z,100822.38
2023-09-28T21:24:57.733Z,100824.06
2023-09-28T21:27:24.303Z,100818.94
2023-09-28T21:29:50.942Z,100827.72
2023-09-28T21:32:17.556Z,100818.69
2023-09-28T21:34:44.152Z,100817.59
2023-09-28T21:37:10.764Z,100816.31
2023-09-28T21:39:37.378Z,100820.97
2023-09-28T21:42:04.283Z,100822.56
2023-09-28T21:44:31.051Z,100815.41
2023-09-28T21:46:58.260Z,100810.22
2023-09-28T21:49:24.874Z,100815.63
2023-09-28T21:51:51.440Z,100811.50
2023-09-28T21:54:17.995Z,100811.13
2023-09-28T21:56:44.633Z,100807.63
2023-09-28T21:59:11.214Z,100805.72
2023-09-28T22:01:38.726Z,100808.69
2023-09-28T22:04:05.578Z,100798.19
2023-09-28T22:06:32.218Z,100805.72
2023-09-28T22:08:58.889Z,100811.28
2023-09-28T22:11:25.909Z,100812.00
2023-09-28T22:13:52.555Z,100807.22
2023-09-28T22:16:19.174Z,100804.25
2023-09-28T22:18:45.841Z,100802.56
2023-09-28T22:21:12.440Z,100812.78
2023-09-28T22:23:39.098Z,100808.75
2023-09-28T22:26:05.759Z,100809.16
2023-09-28T22:28:32.676Z,100804.81
2023-09-28T22:30:59.278Z,100802.34
2023-09-28T22:33:25.993Z,100795.28
2023-09-28T22:35:52.706Z,100795.13
2023-09-28T22:38:19.343Z,100796.19
2023-09-28T22:40:45.928Z,100798.75
2023-09-28T22:43:12.537Z,100797.59
2023-09-28T22:45:39.893Z,100797.59
2023-09-28T22:48:06.860Z,100804.25
2023-09-28T22:50:35.024Z,100792.84
2023-09-28T22:53:01.796Z,100789.28
2023-09-28T22:55:28.420Z,100790.91
2023-09-28T22:57:55.085Z,100785.19
2023-09-28T23:00:21.738Z,100796.56
2023-09-28T23:02:48.555Z,100797.03
2023-09-28T23:05:15.222Z,100797.03
2023-09-28T23:07:43.008Z,100808.38
2023-09-28T23:10:10.827Z,100808.66
2023-09-28T23:12:37.439Z,100808.28
2023-09-28T23:15:07.747Z,100815.16
2023-09-28T23:17:34.903Z,100816.28
2023-09-28T23:20:01.605Z,100807.34
2023-09-28T23:22:28.234Z,100813.03
2023-09-28T23:24:55.602Z,100815.34
2023-09-28T23:27:23.284Z,100814.75
2023-09-28T23:29:52.402Z,100816.81
2023-09-28T23:32:19.272Z,100816.97
2023-09-28T23:34:46.872Z,100819.47
2023-09-28T23:37:14.489Z,100813.75
2023-09-28T23:39:41.187Z,100813.75
2023-09-28T23:42:07.827Z,100811.50
2023-09-28T23:44:34.397Z,100809.00
2023-09-28T23:47:01.756Z,100807.13
2023-09-28T23:49:30.047Z,100805.81
2023-09-28T23:51:56.724Z,100799.69
2023-09-28T23:54:23.639Z,100800.28
2023-09-28T23:56:50.329Z,100797.53
2023-09-28T23:59:18.360Z,100798.41
